CFDAA CSX7-CYCE
Flight info
| Callsign | CFDAA |
|---|---|
| Flight time | 0h 8m |
| Altitude | 4000 |
| Route | BOSEP DCT CYZR/N0193F050 DCT HAVOK DCT DCT TETOS DCT CYKF/N0191F040 SIGTU·RNAV/15 CYXU/09 DUPUR·RNAVZ/08 |
| Aircraft | BE58/L-SBGRZ/EB2 |
Departure
| Time | 2026-04-25 01:41 |
|---|---|
| Airport | Sexsmith (Exeter) Airport (CSX7) |
Arrival
| Time | 2026-04-25 01:50 |
|---|---|
| Airport | Centralia / James T. Field Memorial Aerodrome (CYCE) |
| Time | Latitude | Longitude | Altitude | Speed | Heading |
|---|---|---|---|---|---|
| 2026-04-25 01:34 | 43.48369 | -80.54721 | 4101 ft | 182 kts | 254° |
| 2026-04-25 01:34 | 43.48029 | -80.56396 | 4097 ft | 182 kts | 254° |
| 2026-04-25 01:34 | 43.47689 | -80.58079 | 4099 ft | 182 kts | 255° |
| 2026-04-25 01:35 | 43.47328 | -80.59742 | 4103 ft | 180 kts | 246° |
| 2026-04-25 01:35 | 43.46964 | -80.61380 | 4129 ft | 180 kts | 255° |
| 2026-04-25 01:35 | 43.46680 | -80.63059 | 4153 ft | 180 kts | 257° |
| 2026-04-25 01:35 | 43.46370 | -80.64714 | 4194 ft | 178 kts | 255° |
| 2026-04-25 01:36 | 43.46028 | -80.66357 | 4208 ft | 179 kts | 254° |
| 2026-04-25 01:36 | 43.45685 | -80.68010 | 4245 ft | 180 kts | 255° |
| 2026-04-25 01:36 | 43.45348 | -80.69664 | 4268 ft | 179 kts | 255° |
| 2026-04-25 01:36 | 43.45014 | -80.71316 | 4292 ft | 179 kts | 255° |
| 2026-04-25 01:37 | 43.44679 | -80.72961 | 4341 ft | 178 kts | 255° |
| 2026-04-25 01:37 | 43.44355 | -80.74542 | 4714 ft | 161 kts | 256° |
| 2026-04-25 01:37 | 43.44072 | -80.75913 | 5417 ft | 138 kts | 256° |
| 2026-04-25 01:37 | 43.43820 | -80.77138 | 5993 ft | 135 kts | 256° |
| 2026-04-25 01:38 | 43.43548 | -80.78498 | 6071 ft | 159 kts | 257° |
| 2026-04-25 01:38 | 43.43241 | -80.80031 | 6084 ft | 171 kts | 256° |
| 2026-04-25 01:38 | 43.42915 | -80.81628 | 6078 ft | 175 kts | 254° |
| 2026-04-25 01:38 | 43.42545 | -80.83227 | 6080 ft | 176 kts | 256° |
| 2026-04-25 01:39 | 43.42238 | -80.84871 | 6079 ft | 178 kts | 256° |
| 2026-04-25 01:39 | 43.41903 | -80.86512 | 6074 ft | 178 kts | 255° |
| 2026-04-25 01:39 | 43.41569 | -80.88150 | 6075 ft | 178 kts | 256° |
| 2026-04-25 01:39 | 43.41234 | -80.89788 | 6072 ft | 178 kts | 256° |
| 2026-04-25 01:40 | 43.40904 | -80.91429 | 6068 ft | 178 kts | 256° |
| 2026-04-25 01:40 | 43.40568 | -80.93068 | 6070 ft | 178 kts | 256° |
| 2026-04-25 01:40 | 43.40231 | -80.94704 | 6071 ft | 178 kts | 256° |
| 2026-04-25 01:40 | 43.39894 | -80.96342 | 6066 ft | 178 kts | 256° |
| 2026-04-25 01:41 | 43.39555 | -80.97979 | 6066 ft | 178 kts | 256° |
| 2026-04-25 01:41 | 43.39218 | -80.99615 | 6067 ft | 178 kts | 256° |
| 2026-04-25 01:41 | 43.38881 | -81.01249 | 6066 ft | 178 kts | 256° |
| 2026-04-25 01:41 | 43.38543 | -81.02883 | 6064 ft | 178 kts | 256° |
| 2026-04-25 01:42 | 43.38205 | -81.04518 | 6067 ft | 178 kts | 256° |
| 2026-04-25 01:42 | 43.37869 | -81.06149 | 6064 ft | 177 kts | 256° |
| 2026-04-25 01:42 | 43.37531 | -81.07781 | 6059 ft | 178 kts | 255° |
| 2026-04-25 01:42 | 43.37193 | -81.09416 | 6063 ft | 178 kts | 255° |
| 2026-04-25 01:43 | 43.36855 | -81.11045 | 6056 ft | 177 kts | 255° |
| 2026-04-25 01:43 | 43.36518 | -81.12671 | 6059 ft | 177 kts | 256° |
| 2026-04-25 01:43 | 43.36180 | -81.14302 | 6056 ft | 178 kts | 256° |
| 2026-04-25 01:43 | 43.35840 | -81.15936 | 6051 ft | 177 kts | 255° |
| 2026-04-25 01:44 | 43.35502 | -81.17563 | 6053 ft | 177 kts | 255° |
| 2026-04-25 01:44 | 43.35164 | -81.19191 | 6054 ft | 177 kts | 256° |
| 2026-04-25 01:44 | 43.34825 | -81.20817 | 6054 ft | 177 kts | 255° |
| 2026-04-25 01:44 | 43.34486 | -81.22446 | 6052 ft | 177 kts | 255° |
| 2026-04-25 01:45 | 43.34146 | -81.24074 | 6053 ft | 177 kts | 255° |
| 2026-04-25 01:45 | 43.33807 | -81.25701 | 6052 ft | 177 kts | 255° |
| 2026-04-25 01:45 | 43.33467 | -81.27326 | 6052 ft | 177 kts | 255° |
| 2026-04-25 01:45 | 43.33128 | -81.28953 | 6051 ft | 177 kts | 255° |
| 2026-04-25 01:46 | 43.32788 | -81.30578 | 6047 ft | 177 kts | 255° |
| 2026-04-25 01:46 | 43.32450 | -81.32204 | 6050 ft | 177 kts | 255° |
| 2026-04-25 01:46 | 43.32107 | -81.33831 | 6046 ft | 177 kts | 255° |
| 2026-04-25 01:46 | 43.31762 | -81.35451 | 6048 ft | 176 kts | 254° |
| 2026-04-25 01:47 | 43.31389 | -81.37055 | 6036 ft | 179 kts | 253° |
| 2026-04-25 01:47 | 43.31053 | -81.38746 | 6068 ft | 188 kts | 255° |
| 2026-04-25 01:47 | 43.30691 | -81.40494 | 6068 ft | 192 kts | 250° |
| 2026-04-25 01:47 | 43.30338 | -81.42034 | 5292 ft | 132 kts | 251° |
| 2026-04-25 01:48 | 43.29958 | -81.43222 | 3900 ft | 125 kts | 238° |
| 2026-04-25 01:48 | 43.29571 | -81.44257 | 3197 ft | 118 kts | 239° |
| 2026-04-25 01:48 | 43.29173 | -81.45217 | 2658 ft | 114 kts | 242° |
| 2026-04-25 01:48 | 43.28821 | -81.46148 | 2216 ft | 110 kts | 241° |
| 2026-04-25 01:49 | 43.28481 | -81.47070 | 1763 ft | 107 kts | 245° |
| 2026-04-25 01:49 | 43.28294 | -81.48065 | 1345 ft | 106 kts | 264° |
| 2026-04-25 01:49 | 43.28277 | -81.48973 | 1011 ft | 89 kts | 272° |
| 2026-04-25 01:49 | 43.28305 | -81.49808 | 839 ft | 84 kts | 272° |
| 2026-04-25 01:50 | 43.28322 | -81.50487 | 819 ft | 56 kts | 276° |
| 2026-04-25 01:50 | 43.28335 | -81.50990 | 810 ft | 49 kts | 270° |
| 2026-04-25 01:50 | 43.28345 | -81.51388 | 804 ft | 35 kts | 277° |
| 2026-04-25 01:50 | 43.28453 | -81.51358 | 806 ft | 23 kts | 88° |
| 2026-04-25 01:51 | 43.28525 | -81.51205 | 809 ft | 19 kts | 35° |
| 2026-04-25 01:51 | 43.28624 | -81.51120 | 812 ft | 18 kts | 29° |
| 2026-04-25 01:51 | 43.28757 | -81.51001 | 815 ft | 26 kts | 10° |
| 2026-04-25 01:51 | 43.28838 | -81.50918 | 816 ft | 0 kts | 357° |